sensor_id;sensor_type;location;lat;lon;timestamp;P1;durP1;ratioP1;P2;durP2;ratioP2
12848;SDS011;6493;50.928;7.172;2023-02-28T00:02:55;0.80;;;0.60;;
12848;SDS011;6493;50.928;7.172;2023-02-28T00:08:00;0.70;;;0.70;;
12848;SDS011;6493;50.928;7.172;2023-02-28T00:13:05;0.90;;;0.63;;
12848;SDS011;6493;50.928;7.172;2023-02-28T00:18:09;0.93;;;0.40;;
12848;SDS011;6493;50.928;7.172;2023-02-28T00:23:14;0.50;;;0.40;;
12848;SDS011;6493;50.928;7.172;2023-02-28T00:28:19;0.43;;;0.43;;
12848;SDS011;6493;50.928;7.172;2023-02-28T00:33:22;0.80;;;0.53;;
12848;SDS011;6493;50.928;7.172;2023-02-28T00:38:25;0.70;;;0.60;;
12848;SDS011;6493;50.928;7.172;2023-02-28T00:43:30;0.50;;;0.50;;
12848;SDS011;6493;50.928;7.172;2023-02-28T00:48:34;0.50;;;0.50;;
12848;SDS011;6493;50.928;7.172;2023-02-28T00:53:37;0.40;;;0.40;;
12848;SDS011;6493;50.928;7.172;2023-02-28T00:58:42;1.20;;;0.47;;
12848;SDS011;6493;50.928;7.172;2023-02-28T01:03:45;0.60;;;0.60;;
12848;SDS011;6493;50.928;7.172;2023-02-28T01:08:49;0.93;;;0.60;;
12848;SDS011;6493;50.928;7.172;2023-02-28T01:13:54;0.80;;;0.50;;
12848;SDS011;6493;50.928;7.172;2023-02-28T01:18:57;0.57;;;0.47;;
12848;SDS011;6493;50.928;7.172;2023-02-28T01:24:00;0.70;;;0.50;;
12848;SDS011;6493;50.928;7.172;2023-02-28T01:29:06;1.63;;;0.47;;
12848;SDS011;6493;50.928;7.172;2023-02-28T01:34:09;0.40;;;0.40;;
12848;SDS011;6493;50.928;7.172;2023-02-28T01:39:13;0.90;;;0.50;;
12848;SDS011;6493;50.928;7.172;2023-02-28T01:50:02;1.00;;;0.50;;
12848;SDS011;6493;50.928;7.172;2023-02-28T01:55:09;0.50;;;0.40;;
12848;SDS011;6493;50.928;7.172;2023-02-28T02:00:16;0.40;;;0.40;;
12848;SDS011;6493;50.928;7.172;2023-02-28T02:05:23;0.50;;;0.50;;
12848;SDS011;6493;50.928;7.172;2023-02-28T02:10:29;0.30;;;0.30;;
12848;SDS011;6493;50.928;7.172;2023-02-28T02:15:38;0.33;;;0.33;;
12848;SDS011;6493;50.928;7.172;2023-02-28T02:20:50;0.57;;;0.40;;
12848;SDS011;6493;50.928;7.172;2023-02-28T02:26:22;0.50;;;0.50;;
12848;SDS011;6493;50.928;7.172;2023-02-28T02:31:54;0.63;;;0.60;;
12848;SDS011;6493;50.928;7.172;2023-02-28T02:37:24;0.50;;;0.50;;
12848;SDS011;6493;50.928;7.172;2023-02-28T02:42:35;0.43;;;0.43;;
12848;SDS011;6493;50.928;7.172;2023-02-28T02:47:45;0.67;;;0.43;;
12848;SDS011;6493;50.928;7.172;2023-02-28T02:52:50;0.80;;;0.57;;
12848;SDS011;6493;50.928;7.172;2023-02-28T02:57:58;0.70;;;0.60;;
12848;SDS011;6493;50.928;7.172;2023-02-28T03:03:04;0.30;;;0.30;;
12848;SDS011;6493;50.928;7.172;2023-02-28T03:08:11;1.57;;;0.70;;
12848;SDS011;6493;50.928;7.172;2023-02-28T03:13:23;0.63;;;0.57;;
12848;SDS011;6493;50.928;7.172;2023-02-28T03:18:40;1.17;;;0.50;;
12848;SDS011;6493;50.928;7.172;2023-02-28T03:23:55;0.50;;;0.50;;
12848;SDS011;6493;50.928;7.172;2023-02-28T03:29:07;0.43;;;0.40;;
12848;SDS011;6493;50.928;7.172;2023-02-28T03:34:19;0.53;;;0.53;;
12848;SDS011;6493;50.928;7.172;2023-02-28T03:39:28;1.33;;;0.70;;
12848;SDS011;6493;50.928;7.172;2023-02-28T03:44:37;0.40;;;0.40;;
12848;SDS011;6493;50.928;7.172;2023-02-28T03:49:44;0.57;;;0.50;;
12848;SDS011;6493;50.928;7.172;2023-02-28T03:54:54;0.97;;;0.70;;
12848;SDS011;6493;50.928;7.172;2023-02-28T04:00:04;0.63;;;0.50;;
12848;SDS011;6493;50.928;7.172;2023-02-28T04:05:15;1.97;;;0.50;;
12848;SDS011;6493;50.928;7.172;2023-02-28T04:10:20;1.17;;;0.50;;
12848;SDS011;6493;50.928;7.172;2023-02-28T04:15:23;0.60;;;0.60;;
12848;SDS011;6493;50.928;7.172;2023-02-28T04:20:28;0.50;;;0.50;;
12848;SDS011;6493;50.928;7.172;2023-02-28T04:25:33;0.83;;;0.80;;
12848;SDS011;6493;50.928;7.172;2023-02-28T04:30:37;0.67;;;0.47;;
12848;SDS011;6493;50.928;7.172;2023-02-28T04:35:41;0.63;;;0.50;;
12848;SDS011;6493;50.928;7.172;2023-02-28T04:40:46;1.00;;;0.40;;
12848;SDS011;6493;50.928;7.172;2023-02-28T04:45:49;0.60;;;0.40;;
12848;SDS011;6493;50.928;7.172;2023-02-28T04:50:52;0.40;;;0.40;;
12848;SDS011;6493;50.928;7.172;2023-02-28T04:55:57;1.17;;;0.50;;
12848;SDS011;6493;50.928;7.172;2023-02-28T05:01:04;1.13;;;0.50;;
12848;SDS011;6493;50.928;7.172;2023-02-28T05:06:14;1.03;;;0.60;;
12848;SDS011;6493;50.928;7.172;2023-02-28T05:11:20;1.37;;;0.73;;
12848;SDS011;6493;50.928;7.172;2023-02-28T05:16:25;0.73;;;0.50;;
12848;SDS011;6493;50.928;7.172;2023-02-28T05:21:29;0.20;;;0.20;;
12848;SDS011;6493;50.928;7.172;2023-02-28T05:26:36;0.67;;;0.30;;
12848;SDS011;6493;50.928;7.172;2023-02-28T05:31:40;0.50;;;0.40;;
12848;SDS011;6493;50.928;7.172;2023-02-28T05:36:44;0.63;;;0.40;;
12848;SDS011;6493;50.928;7.172;2023-02-28T05:41:49;0.40;;;0.30;;
12848;SDS011;6493;50.928;7.172;2023-02-28T05:46:52;0.60;;;0.30;;
12848;SDS011;6493;50.928;7.172;2023-02-28T05:51:55;0.77;;;0.30;;
12848;SDS011;6493;50.928;7.172;2023-02-28T05:56:59;0.30;;;0.30;;
12848;SDS011;6493;50.928;7.172;2023-02-28T06:02:06;0.50;;;0.50;;
12848;SDS011;6493;50.928;7.172;2023-02-28T06:07:15;0.30;;;0.30;;
12848;SDS011;6493;50.928;7.172;2023-02-28T06:12:21;0.73;;;0.47;;
12848;SDS011;6493;50.928;7.172;2023-02-28T06:17:24;0.30;;;0.30;;
12848;SDS011;6493;50.928;7.172;2023-02-28T06:22:27;0.60;;;0.47;;
12848;SDS011;6493;50.928;7.172;2023-02-28T06:27:33;0.50;;;0.50;;
12848;SDS011;6493;50.928;7.172;2023-02-28T06:32:37;0.67;;;0.57;;
12848;SDS011;6493;50.928;7.172;2023-02-28T06:37:40;0.80;;;0.50;;
12848;SDS011;6493;50.928;7.172;2023-02-28T06:42:46;0.50;;;0.50;;
12848;SDS011;6493;50.928;7.172;2023-02-28T06:47:49;0.53;;;0.50;;
12848;SDS011;6493;50.928;7.172;2023-02-28T06:52:53;0.73;;;0.73;;
12848;SDS011;6493;50.928;7.172;2023-02-28T06:57:58;1.00;;;0.60;;
12848;SDS011;6493;50.928;7.172;2023-02-28T07:03:02;1.83;;;0.70;;
12848;SDS011;6493;50.928;7.172;2023-02-28T07:08:05;1.63;;;0.80;;
12848;SDS011;6493;50.928;7.172;2023-02-28T07:13:11;1.00;;;0.60;;
12848;SDS011;6493;50.928;7.172;2023-02-28T07:18:14;1.73;;;0.97;;
12848;SDS011;6493;50.928;7.172;2023-02-28T07:23:17;0.80;;;0.80;;
12848;SDS011;6493;50.928;7.172;2023-02-28T07:28:22;1.73;;;0.80;;
12848;SDS011;6493;50.928;7.172;2023-02-28T07:33:25;0.90;;;0.80;;
12848;SDS011;6493;50.928;7.172;2023-02-28T07:38:29;1.00;;;0.90;;
12848;SDS011;6493;50.928;7.172;2023-02-28T07:43:33;0.90;;;0.90;;
12848;SDS011;6493;50.928;7.172;2023-02-28T07:48:37;3.73;;;1.10;;
12848;SDS011;6493;50.928;7.172;2023-02-28T07:53:41;1.50;;;1.30;;
12848;SDS011;6493;50.928;7.172;2023-02-28T07:58:45;1.10;;;1.00;;
12848;SDS011;6493;50.928;7.172;2023-02-28T08:03:49;0.70;;;0.60;;
12848;SDS011;6493;50.928;7.172;2023-02-28T08:08:52;0.90;;;0.80;;
12848;SDS011;6493;50.928;7.172;2023-02-28T08:13:58;1.00;;;0.87;;
12848;SDS011;6493;50.928;7.172;2023-02-28T08:19:02;1.23;;;0.97;;
12848;SDS011;6493;50.928;7.172;2023-02-28T08:24:05;1.10;;;0.73;;
12848;SDS011;6493;50.928;7.172;2023-02-28T08:29:10;1.33;;;0.93;;
12848;SDS011;6493;50.928;7.172;2023-02-28T08:34:14;1.20;;;0.80;;
12848;SDS011;6493;50.928;7.172;2023-02-28T08:39:18;0.70;;;0.70;;
12848;SDS011;6493;50.928;7.172;2023-02-28T08:44:23;1.80;;;0.90;;
12848;SDS011;6493;50.928;7.172;2023-02-28T08:49:26;1.00;;;0.80;;
12848;SDS011;6493;50.928;7.172;2023-02-28T08:54:29;0.90;;;0.80;;
12848;SDS011;6493;50.928;7.172;2023-02-28T08:59:35;1.00;;;0.50;;
12848;SDS011;6493;50.928;7.172;2023-02-28T09:04:39;1.00;;;0.67;;
12848;SDS011;6493;50.928;7.172;2023-02-28T09:09:42;0.67;;;0.60;;
12848;SDS011;6493;50.928;7.172;2023-02-28T09:14:57;1.90;;;0.60;;
12848;SDS011;6493;50.928;7.172;2023-02-28T09:20:01;0.90;;;0.67;;
12848;SDS011;6493;50.928;7.172;2023-02-28T09:25:04;0.63;;;0.63;;
12848;SDS011;6493;50.928;7.172;2023-02-28T09:30:10;1.00;;;0.90;;
12848;SDS011;6493;50.928;7.172;2023-02-28T09:35:14;2.47;;;0.80;;
12848;SDS011;6493;50.928;7.172;2023-02-28T09:40:18;0.90;;;0.90;;
12848;SDS011;6493;50.928;7.172;2023-02-28T09:45:26;0.80;;;0.60;;
12848;SDS011;6493;50.928;7.172;2023-02-28T09:50:35;1.17;;;1.03;;
12848;SDS011;6493;50.928;7.172;2023-02-28T09:55:42;1.30;;;0.70;;
12848;SDS011;6493;50.928;7.172;2023-02-28T10:00:54;1.23;;;0.90;;
12848;SDS011;6493;50.928;7.172;2023-02-28T10:06:05;1.17;;;0.97;;
12848;SDS011;6493;50.928;7.172;2023-02-28T10:11:15;1.90;;;0.90;;
12848;SDS011;6493;50.928;7.172;2023-02-28T10:16:24;1.63;;;1.03;;
12848;SDS011;6493;50.928;7.172;2023-02-28T10:21:31;1.67;;;1.00;;
12848;SDS011;6493;50.928;7.172;2023-02-28T10:26:38;1.83;;;1.30;;
12848;SDS011;6493;50.928;7.172;2023-02-28T10:31:45;1.57;;;1.10;;
12848;SDS011;6493;50.928;7.172;2023-02-28T10:36:49;1.37;;;1.00;;
12848;SDS011;6493;50.928;7.172;2023-02-28T10:41:53;1.17;;;0.80;;
12848;SDS011;6493;50.928;7.172;2023-02-28T10:46:58;0.83;;;0.80;;
12848;SDS011;6493;50.928;7.172;2023-02-28T10:52:02;1.20;;;1.10;;
12848;SDS011;6493;50.928;7.172;2023-02-28T10:57:06;1.43;;;1.10;;
12848;SDS011;6493;50.928;7.172;2023-02-28T11:02:30;0.90;;;0.70;;
12848;SDS011;6493;50.928;7.172;2023-02-28T11:07:36;1.93;;;1.10;;
12848;SDS011;6493;50.928;7.172;2023-02-28T11:12:54;0.87;;;0.80;;
12848;SDS011;6493;50.928;7.172;2023-02-28T11:18:06;1.23;;;0.70;;
12848;SDS011;6493;50.928;7.172;2023-02-28T11:23:24;2.17;;;0.87;;
12848;SDS011;6493;50.928;7.172;2023-02-28T11:28:30;1.30;;;1.00;;
12848;SDS011;6493;50.928;7.172;2023-02-28T11:33:41;1.50;;;1.20;;
12848;SDS011;6493;50.928;7.172;2023-02-28T11:38:47;1.27;;;1.07;;
12848;SDS011;6493;50.928;7.172;2023-02-28T11:43:55;1.00;;;0.90;;
12848;SDS011;6493;50.928;7.172;2023-02-28T11:49:16;1.03;;;0.77;;
12848;SDS011;6493;50.928;7.172;2023-02-28T11:54:35;1.77;;;1.10;;
12848;SDS011;6493;50.928;7.172;2023-02-28T11:59:54;1.20;;;1.10;;
12848;SDS011;6493;50.928;7.172;2023-02-28T12:05:20;1.33;;;1.20;;
12848;SDS011;6493;50.928;7.172;2023-02-28T12:10:29;4.60;;;1.50;;
12848;SDS011;6493;50.928;7.172;2023-02-28T12:15:50;1.30;;;1.20;;
12848;SDS011;6493;50.928;7.172;2023-02-28T12:21:22;2.20;;;1.37;;
12848;SDS011;6493;50.928;7.172;2023-02-28T12:26:35;1.87;;;1.40;;
12848;SDS011;6493;50.928;7.172;2023-02-28T12:31:41;4.27;;;1.23;;
12848;SDS011;6493;50.928;7.172;2023-02-28T12:36:52;2.73;;;1.30;;
12848;SDS011;6493;50.928;7.172;2023-02-28T12:41:59;1.43;;;0.93;;
12848;SDS011;6493;50.928;7.172;2023-02-28T12:47:09;2.17;;;1.80;;
12848;SDS011;6493;50.928;7.172;2023-02-28T12:52:19;1.60;;;1.20;;
12848;SDS011;6493;50.928;7.172;2023-02-28T12:57:29;1.63;;;1.20;;
12848;SDS011;6493;50.928;7.172;2023-02-28T13:02:57;1.90;;;1.33;;
12848;SDS011;6493;50.928;7.172;2023-02-28T13:08:41;1.73;;;1.60;;
12848;SDS011;6493;50.928;7.172;2023-02-28T13:14:03;1.40;;;1.30;;
12848;SDS011;6493;50.928;7.172;2023-02-28T13:19:08;1.47;;;1.20;;
12848;SDS011;6493;50.928;7.172;2023-02-28T13:29:57;1.30;;;1.20;;
12848;SDS011;6493;50.928;7.172;2023-02-28T13:35:14;1.40;;;1.30;;
12848;SDS011;6493;50.928;7.172;2023-02-28T13:40:41;2.90;;;1.60;;
12848;SDS011;6493;50.928;7.172;2023-02-28T13:56:47;1.93;;;1.30;;
12848;SDS011;6493;50.928;7.172;2023-02-28T14:02:00;1.80;;;1.70;;
12848;SDS011;6493;50.928;7.172;2023-02-28T14:07:17;1.83;;;1.40;;
12848;SDS011;6493;50.928;7.172;2023-02-28T14:17:58;1.53;;;1.43;;
12848;SDS011;6493;50.928;7.172;2023-02-28T14:23:04;1.67;;;1.57;;
12848;SDS011;6493;50.928;7.172;2023-02-28T14:28:14;1.33;;;1.10;;
12848;SDS011;6493;50.928;7.172;2023-02-28T14:33:34;1.60;;;1.50;;
12848;SDS011;6493;50.928;7.172;2023-02-28T14:38:47;1.83;;;1.60;;
12848;SDS011;6493;50.928;7.172;2023-02-28T14:43:55;1.50;;;1.40;;
12848;SDS011;6493;50.928;7.172;2023-02-28T14:49:01;2.07;;;1.70;;
12848;SDS011;6493;50.928;7.172;2023-02-28T14:54:07;1.57;;;1.30;;
12848;SDS011;6493;50.928;7.172;2023-02-28T14:59:23;1.60;;;1.33;;
12848;SDS011;6493;50.928;7.172;2023-02-28T15:04:30;1.63;;;1.50;;
12848;SDS011;6493;50.928;7.172;2023-02-28T15:09:34;1.60;;;1.37;;
12848;SDS011;6493;50.928;7.172;2023-02-28T15:14:37;1.67;;;1.40;;
12848;SDS011;6493;50.928;7.172;2023-02-28T15:19:48;1.40;;;1.30;;
12848;SDS011;6493;50.928;7.172;2023-02-28T15:24:52;1.33;;;1.23;;
12848;SDS011;6493;50.928;7.172;2023-02-28T15:29:57;1.50;;;1.40;;
12848;SDS011;6493;50.928;7.172;2023-02-28T15:40:28;1.90;;;1.23;;
12848;SDS011;6493;50.928;7.172;2023-02-28T15:45:33;1.73;;;1.20;;
12848;SDS011;6493;50.928;7.172;2023-02-28T15:50:43;1.93;;;1.60;;
12848;SDS011;6493;50.928;7.172;2023-02-28T15:55:54;1.20;;;1.10;;
12848;SDS011;6493;50.928;7.172;2023-02-28T16:01:01;0.90;;;0.90;;
12848;SDS011;6493;50.928;7.172;2023-02-28T16:06:28;1.00;;;0.90;;
12848;SDS011;6493;50.928;7.172;2023-02-28T16:11:40;1.73;;;1.40;;
12848;SDS011;6493;50.928;7.172;2023-02-28T16:16:45;2.10;;;1.20;;
12848;SDS011;6493;50.928;7.172;2023-02-28T16:21:52;0.83;;;0.73;;
12848;SDS011;6493;50.928;7.172;2023-02-28T16:26:55;1.20;;;1.10;;
12848;SDS011;6493;50.928;7.172;2023-02-28T16:32:00;0.80;;;0.80;;
12848;SDS011;6493;50.928;7.172;2023-02-28T16:37:07;1.30;;;1.20;;
12848;SDS011;6493;50.928;7.172;2023-02-28T16:42:15;0.93;;;0.83;;
12848;SDS011;6493;50.928;7.172;2023-02-28T16:47:23;1.33;;;1.10;;
12848;SDS011;6493;50.928;7.172;2023-02-28T16:52:29;0.67;;;0.67;;
12848;SDS011;6493;50.928;7.172;2023-02-28T16:57:32;1.77;;;0.90;;
12848;SDS011;6493;50.928;7.172;2023-02-28T17:02:35;0.67;;;0.60;;
12848;SDS011;6493;50.928;7.172;2023-02-28T17:07:43;1.40;;;1.00;;
12848;SDS011;6493;50.928;7.172;2023-02-28T17:12:48;1.63;;;1.10;;
12848;SDS011;6493;50.928;7.172;2023-02-28T17:17:51;0.60;;;0.60;;
12848;SDS011;6493;50.928;7.172;2023-02-28T17:22:56;1.37;;;0.90;;
12848;SDS011;6493;50.928;7.172;2023-02-28T17:27:59;1.23;;;1.10;;
12848;SDS011;6493;50.928;7.172;2023-02-28T17:33:03;1.10;;;0.97;;
12848;SDS011;6493;50.928;7.172;2023-02-28T17:38:09;1.40;;;1.00;;
12848;SDS011;6493;50.928;7.172;2023-02-28T17:43:18;0.70;;;0.63;;
12848;SDS011;6493;50.928;7.172;2023-02-28T17:48:21;1.03;;;0.90;;
12848;SDS011;6493;50.928;7.172;2023-02-28T17:53:26;1.37;;;1.10;;
12848;SDS011;6493;50.928;7.172;2023-02-28T17:58:29;2.03;;;1.30;;
12848;SDS011;6493;50.928;7.172;2023-02-28T18:03:32;1.30;;;1.20;;
12848;SDS011;6493;50.928;7.172;2023-02-28T18:08:37;1.03;;;0.90;;
12848;SDS011;6493;50.928;7.172;2023-02-28T18:13:40;1.60;;;1.03;;
12848;SDS011;6493;50.928;7.172;2023-02-28T18:18:43;1.33;;;1.00;;
12848;SDS011;6493;50.928;7.172;2023-02-28T18:23:49;1.63;;;1.20;;
12848;SDS011;6493;50.928;7.172;2023-02-28T18:28:53;1.70;;;1.27;;
12848;SDS011;6493;50.928;7.172;2023-02-28T18:33:57;1.23;;;1.13;;
12848;SDS011;6493;50.928;7.172;2023-02-28T18:39:02;1.23;;;1.03;;
12848;SDS011;6493;50.928;7.172;2023-02-28T18:44:06;0.87;;;0.83;;
12848;SDS011;6493;50.928;7.172;2023-02-28T18:49:20;0.80;;;0.77;;
12848;SDS011;6493;50.928;7.172;2023-02-28T18:54:25;1.97;;;1.43;;
12848;SDS011;6493;50.928;7.172;2023-02-28T18:59:28;1.50;;;1.30;;
12848;SDS011;6493;50.928;7.172;2023-02-28T19:04:31;3.30;;;1.40;;
12848;SDS011;6493;50.928;7.172;2023-02-28T19:09:36;1.20;;;1.10;;
12848;SDS011;6493;50.928;7.172;2023-02-28T19:14:40;1.17;;;1.07;;
12848;SDS011;6493;50.928;7.172;2023-02-28T19:19:43;1.30;;;1.17;;
12848;SDS011;6493;50.928;7.172;2023-02-28T19:24:48;2.67;;;1.10;;
12848;SDS011;6493;50.928;7.172;2023-02-28T19:29:51;1.50;;;1.30;;
12848;SDS011;6493;50.928;7.172;2023-02-28T19:34:55;1.30;;;1.20;;
12848;SDS011;6493;50.928;7.172;2023-02-28T19:39:59;1.10;;;1.00;;
12848;SDS011;6493;50.928;7.172;2023-02-28T19:45:04;1.47;;;1.10;;
12848;SDS011;6493;50.928;7.172;2023-02-28T19:50:10;0.80;;;0.80;;
12848;SDS011;6493;50.928;7.172;2023-02-28T19:55:15;1.23;;;1.10;;
12848;SDS011;6493;50.928;7.172;2023-02-28T20:00:19;0.90;;;0.83;;
12848;SDS011;6493;50.928;7.172;2023-02-28T20:05:22;0.90;;;0.90;;
12848;SDS011;6493;50.928;7.172;2023-02-28T20:10:27;2.13;;;1.60;;
12848;SDS011;6493;50.928;7.172;2023-02-28T20:15:31;1.17;;;1.07;;
12848;SDS011;6493;50.928;7.172;2023-02-28T20:20:34;1.10;;;1.00;;
12848;SDS011;6493;50.928;7.172;2023-02-28T20:25:39;1.00;;;0.90;;
12848;SDS011;6493;50.928;7.172;2023-02-28T20:30:43;0.93;;;0.70;;
12848;SDS011;6493;50.928;7.172;2023-02-28T20:35:48;1.10;;;1.00;;
12848;SDS011;6493;50.928;7.172;2023-02-28T20:40:54;1.30;;;0.70;;
12848;SDS011;6493;50.928;7.172;2023-02-28T20:46:00;1.20;;;0.80;;
12848;SDS011;6493;50.928;7.172;2023-02-28T20:51:04;0.80;;;0.80;;
12848;SDS011;6493;50.928;7.172;2023-02-28T20:56:11;0.90;;;0.70;;
12848;SDS011;6493;50.928;7.172;2023-02-28T21:01:17;1.20;;;1.10;;
12848;SDS011;6493;50.928;7.172;2023-02-28T21:06:27;1.43;;;1.00;;
12848;SDS011;6493;50.928;7.172;2023-02-28T21:11:33;1.33;;;1.10;;
12848;SDS011;6493;50.928;7.172;2023-02-28T21:16:37;1.40;;;1.00;;
12848;SDS011;6493;50.928;7.172;2023-02-28T21:21:41;1.10;;;0.90;;
12848;SDS011;6493;50.928;7.172;2023-02-28T21:26:47;1.40;;;1.10;;
12848;SDS011;6493;50.928;7.172;2023-02-28T21:31:50;1.63;;;1.10;;
12848;SDS011;6493;50.928;7.172;2023-02-28T21:36:54;1.30;;;1.07;;
12848;SDS011;6493;50.928;7.172;2023-02-28T21:41:59;1.97;;;1.43;;
12848;SDS011;6493;50.928;7.172;2023-02-28T21:47:04;1.50;;;1.40;;
12848;SDS011;6493;50.928;7.172;2023-02-28T21:52:07;1.77;;;1.33;;
12848;SDS011;6493;50.928;7.172;2023-02-28T21:57:12;1.63;;;1.30;;
12848;SDS011;6493;50.928;7.172;2023-02-28T22:02:16;1.50;;;1.20;;
12848;SDS011;6493;50.928;7.172;2023-02-28T22:07:20;2.17;;;1.83;;
12848;SDS011;6493;50.928;7.172;2023-02-28T22:12:24;1.87;;;1.70;;
12848;SDS011;6493;50.928;7.172;2023-02-28T22:17:27;2.93;;;2.03;;
12848;SDS011;6493;50.928;7.172;2023-02-28T22:22:30;2.00;;;1.47;;
12848;SDS011;6493;50.928;7.172;2023-02-28T22:27:35;2.23;;;1.40;;
12848;SDS011;6493;50.928;7.172;2023-02-28T22:32:38;1.40;;;1.30;;
12848;SDS011;6493;50.928;7.172;2023-02-28T22:37:42;1.43;;;1.17;;
12848;SDS011;6493;50.928;7.172;2023-02-28T22:42:47;1.53;;;1.17;;
12848;SDS011;6493;50.928;7.172;2023-02-28T22:47:50;1.33;;;1.23;;
12848;SDS011;6493;50.928;7.172;2023-02-28T22:52:53;1.53;;;1.03;;
12848;SDS011;6493;50.928;7.172;2023-02-28T22:57:59;1.17;;;0.90;;
12848;SDS011;6493;50.928;7.172;2023-02-28T23:03:02;1.20;;;0.90;;
12848;SDS011;6493;50.928;7.172;2023-02-28T23:08:05;1.27;;;1.03;;
12848;SDS011;6493;50.928;7.172;2023-02-28T23:13:10;1.00;;;0.90;;
12848;SDS011;6493;50.928;7.172;2023-02-28T23:18:13;1.40;;;1.10;;
12848;SDS011;6493;50.928;7.172;2023-02-28T23:23:17;0.93;;;0.83;;
12848;SDS011;6493;50.928;7.172;2023-02-28T23:28:22;1.10;;;1.00;;
12848;SDS011;6493;50.928;7.172;2023-02-28T23:33:25;1.13;;;1.00;;
12848;SDS011;6493;50.928;7.172;2023-02-28T23:38:28;1.00;;;0.90;;
12848;SDS011;6493;50.928;7.172;2023-02-28T23:43:32;1.30;;;1.17;;
12848;SDS011;6493;50.928;7.172;2023-02-28T23:48:36;1.33;;;1.03;;
12848;SDS011;6493;50.928;7.172;2023-02-28T23:53:41;2.83;;;1.27;;
12848;SDS011;6493;50.928;7.172;2023-02-28T23:58:47;1.83;;;1.50;;
